createdAt,value
2023-02-09T00:00:31.767Z,7.13
2023-02-09T00:03:18.445Z,7.63
2023-02-09T00:06:08.215Z,7.55
2023-02-09T00:08:56.384Z,6.88
2023-02-09T00:12:01.305Z,8.27
2023-02-09T00:14:47.848Z,7.15
2023-02-09T00:17:35.767Z,7.85
2023-02-09T00:20:22.786Z,6.28
2023-02-09T00:23:10.696Z,7.65
2023-02-09T00:26:00.234Z,7.72
2023-02-09T00:28:46.651Z,7.25
2023-02-09T00:31:33.449Z,7.75
2023-02-09T00:34:20.108Z,7.72
2023-02-09T00:37:07.818Z,7.75
2023-02-09T00:39:55.424Z,7.82
2023-02-09T00:42:41.957Z,8.23
2023-02-09T00:45:29.258Z,8.77
2023-02-09T00:48:15.867Z,7.70
2023-02-09T00:51:02.659Z,7.55
2023-02-09T00:53:49.532Z,8.27
2023-02-09T00:56:37.567Z,8.10
2023-02-09T00:59:24.028Z,8.60
2023-02-09T01:02:10.670Z,7.55
2023-02-09T01:04:58.536Z,7.60
2023-02-09T01:07:45.062Z,7.43
2023-02-09T01:10:31.195Z,7.70
2023-02-09T01:13:19.179Z,7.80
2023-02-09T01:16:06.875Z,7.85
2023-02-09T01:18:53.851Z,8.50
2023-02-09T01:21:41.654Z,7.60
2023-02-09T01:24:28.151Z,7.57
2023-02-09T01:27:15.095Z,8.40
2023-02-09T01:30:03.068Z,7.82
2023-02-09T01:32:49.808Z,7.32
2023-02-09T01:35:36.518Z,7.20
2023-02-09T01:38:22.979Z,8.20
2023-02-09T01:41:09.931Z,7.38
2023-02-09T01:44:01.081Z,6.35
2023-02-09T01:46:49.591Z,7.40
2023-02-09T01:49:35.877Z,7.22
2023-02-09T01:52:27.328Z,6.72
2023-02-09T01:55:16.867Z,7.20
2023-02-09T01:58:10.480Z,6.72
2023-02-09T02:00:59.050Z,7.00
2023-02-09T02:03:47.998Z,5.53
2023-02-09T02:06:34.568Z,6.97
2023-02-09T02:09:21.377Z,6.25
2023-02-09T02:12:08.820Z,7.03
2023-02-09T02:14:55.271Z,7.88
2023-02-09T02:17:57.107Z,6.60
2023-02-09T02:21:16.214Z,7.80
2023-02-09T02:24:28.857Z,7.25
2023-02-09T02:27:29.612Z,7.05
2023-02-09T02:30:38.823Z,7.25
2023-02-09T02:33:37.776Z,6.75
2023-02-09T02:36:32.516Z,7.05
2023-02-09T02:39:25.015Z,6.18
2023-02-09T02:42:33.089Z,6.00
2023-02-09T02:45:34.339Z,6.93
2023-02-09T02:48:28.428Z,6.35
2023-02-09T02:51:22.498Z,7.35
2023-02-09T02:54:14.428Z,6.10
2023-02-09T02:57:04.841Z,7.35
2023-02-09T02:59:54.628Z,6.35
2023-02-09T03:02:45.370Z,6.87
2023-02-09T03:05:33.451Z,6.68
2023-02-09T03:08:21.610Z,6.38
2023-02-09T03:11:11.794Z,6.28
2023-02-09T03:14:12.743Z,5.93
2023-02-09T03:17:13.656Z,6.28
2023-02-09T03:22:57.465Z,6.05
2023-02-09T03:25:49.272Z,5.47
2023-02-09T03:28:39.563Z,5.82
2023-02-09T03:31:28.396Z,6.40
2023-02-09T03:34:16.194Z,6.20
2023-02-09T03:37:02.970Z,6.07
2023-02-09T03:39:49.526Z,6.82
2023-02-09T03:42:37.404Z,5.55
2023-02-09T03:45:24.098Z,5.93
2023-02-09T03:48:10.573Z,6.25
2023-02-09T03:50:57.047Z,6.28
2023-02-09T03:53:43.949Z,5.40
2023-02-09T03:56:30.525Z,5.57
2023-02-09T03:59:18.698Z,5.68
2023-02-09T04:02:07.407Z,5.57
2023-02-09T04:04:54.528Z,6.10
2023-02-09T04:07:41.406Z,6.50
2023-02-09T04:10:28.401Z,5.95
2023-02-09T04:13:15.000Z,5.55
2023-02-09T04:16:02.747Z,5.28
2023-02-09T04:18:49.300Z,4.90
2023-02-09T04:21:36.894Z,5.72
2023-02-09T04:24:23.342Z,6.68
2023-02-09T04:27:10.136Z,5.07
2023-02-09T04:29:56.477Z,5.53
2023-02-09T04:32:44.521Z,5.32
2023-02-09T04:35:30.955Z,5.25
2023-02-09T04:38:19.388Z,5.70
2023-02-09T04:41:06.596Z,5.47
2023-02-09T04:43:52.817Z,5.30
2023-02-09T04:46:39.746Z,6.25
2023-02-09T04:49:27.501Z,6.47
2023-02-09T04:52:13.816Z,5.60
2023-02-09T04:55:00.495Z,6.47
2023-02-09T04:58:04.764Z,6.00
2023-02-09T05:00:51.748Z,6.05
2023-02-09T05:03:37.952Z,5.57
2023-02-09T05:06:25.782Z,6.10
2023-02-09T05:09:12.568Z,5.75
2023-02-09T05:11:59.220Z,6.03
2023-02-09T05:14:45.675Z,6.10
2023-02-09T05:17:33.222Z,6.00
2023-02-09T05:20:19.754Z,5.68
2023-02-09T05:23:07.372Z,5.78
2023-02-09T05:25:54.586Z,6.10
2023-02-09T05:28:40.909Z,5.35
2023-02-09T05:31:27.630Z,6.05
2023-02-09T05:34:14.114Z,6.28
2023-02-09T05:37:00.556Z,5.82
2023-02-09T05:39:48.446Z,6.57
2023-02-09T05:42:35.140Z,5.65
2023-02-09T05:45:23.286Z,6.05
2023-02-09T05:48:09.831Z,6.10
2023-02-09T05:50:56.372Z,7.18
2023-02-09T05:53:42.863Z,6.53
2023-02-09T05:56:31.146Z,6.50
2023-02-09T05:59:17.799Z,6.40
2023-02-09T06:02:04.754Z,6.57
2023-02-09T06:04:51.195Z,7.55
2023-02-09T06:07:37.748Z,5.70
2023-02-09T06:10:24.697Z,7.38
2023-02-09T06:13:12.353Z,6.85
2023-02-09T06:15:59.048Z,6.68
2023-02-09T06:18:45.581Z,7.53
2023-02-09T06:21:32.047Z,7.00
2023-02-09T06:24:18.633Z,7.32
2023-02-09T06:27:05.728Z,6.30
2023-02-09T06:29:54.331Z,6.90
2023-02-09T06:32:40.957Z,7.80
2023-02-09T06:35:27.640Z,7.63
2023-02-09T06:38:14.323Z,7.47
2023-02-09T06:41:00.784Z,7.40
2023-02-09T06:43:47.410Z,6.50
2023-02-09T06:46:35.522Z,7.13
2023-02-09T06:49:24.001Z,7.13
2023-02-09T06:52:10.853Z,6.90
2023-02-09T06:54:57.403Z,7.00
2023-02-09T06:57:44.063Z,6.55
2023-02-09T07:00:31.757Z,7.88
2023-02-09T07:03:19.893Z,7.50
2023-02-09T07:06:09.426Z,8.55
2023-02-09T07:08:56.055Z,6.55
2023-02-09T07:11:42.642Z,6.80
2023-02-09T07:14:29.488Z,6.70
2023-02-09T07:17:16.460Z,6.18
2023-02-09T07:20:05.868Z,6.60
2023-02-09T07:22:52.942Z,6.07
2023-02-09T07:25:40.142Z,6.95
2023-02-09T07:28:26.423Z,6.72
2023-02-09T07:31:14.610Z,5.97
2023-02-09T07:34:01.133Z,7.47
2023-02-09T07:36:49.226Z,6.47
2023-02-09T07:39:36.214Z,6.93
2023-02-09T07:42:23.500Z,7.28
2023-02-09T07:45:17.150Z,6.63
2023-02-09T07:48:04.471Z,6.38
2023-02-09T07:50:52.205Z,6.35
2023-02-09T07:53:40.455Z,6.65
2023-02-09T07:56:28.205Z,6.15
2023-02-09T07:59:14.994Z,6.50
2023-02-09T08:02:01.992Z,7.15
2023-02-09T08:04:49.007Z,7.03
2023-02-09T08:07:35.764Z,7.10
2023-02-09T08:10:24.272Z,6.78
2023-02-09T08:13:12.253Z,9.18
2023-02-09T08:16:04.834Z,7.88
2023-02-09T08:18:55.445Z,7.18
2023-02-09T08:21:46.024Z,7.22
2023-02-09T08:24:32.589Z,6.90
2023-02-09T08:27:21.471Z,7.53
2023-02-09T08:30:09.350Z,8.20
2023-02-09T08:32:56.029Z,8.48
2023-02-09T08:35:44.246Z,7.32
2023-02-09T08:38:31.184Z,7.15
2023-02-09T08:41:18.793Z,7.88
2023-02-09T08:44:06.986Z,7.70
2023-02-09T08:46:54.256Z,8.52
2023-02-09T08:49:41.594Z,8.30
2023-02-09T08:52:28.205Z,7.93
2023-02-09T08:55:15.077Z,7.57
2023-02-09T08:58:01.840Z,7.47
2023-02-09T09:00:50.144Z,7.93
2023-02-09T09:03:37.144Z,7.95
2023-02-09T09:06:24.215Z,8.02
2023-02-09T09:09:10.794Z,8.38
2023-02-09T09:11:57.730Z,7.55
2023-02-09T09:14:45.471Z,8.38
2023-02-09T09:17:33.254Z,7.45
2023-02-09T09:20:20.647Z,8.70
2023-02-09T09:23:07.252Z,8.07
2023-02-09T09:25:53.865Z,9.27
2023-02-09T09:28:40.422Z,7.60
2023-02-09T09:31:27.213Z,7.07
2023-02-09T09:34:15.122Z,7.72
2023-02-09T09:37:01.746Z,7.75
2023-02-09T09:39:48.534Z,9.10
2023-02-09T09:42:38.920Z,8.43
2023-02-09T09:45:29.111Z,7.53
2023-02-09T09:48:25.366Z,7.97
2023-02-09T09:51:19.723Z,7.57
2023-02-09T09:54:09.854Z,8.30
2023-02-09T09:56:56.551Z,8.65
2023-02-09T09:59:43.729Z,8.40
2023-02-09T10:02:32.555Z,7.75
2023-02-09T10:05:22.987Z,8.45
2023-02-09T10:08:18.289Z,8.07
2023-02-09T10:11:07.957Z,9.43
2023-02-09T10:13:57.016Z,8.13
2023-02-09T10:16:45.938Z,8.07
2023-02-09T10:19:32.875Z,7.95
2023-02-09T10:22:21.850Z,8.15
2023-02-09T10:25:39.316Z,9.10
2023-02-09T10:28:27.770Z,8.55
2023-02-09T10:31:23.485Z,9.10
2023-02-09T10:34:15.159Z,8.20
2023-02-09T10:37:23.425Z,9.07
2023-02-09T10:40:16.938Z,9.98
2023-02-09T10:43:08.271Z,9.35
2023-02-09T10:45:57.481Z,9.48
2023-02-09T10:48:46.093Z,9.07
2023-02-09T10:51:33.711Z,8.35
2023-02-09T10:54:22.671Z,8.65
2023-02-09T10:57:23.422Z,10.52
2023-02-09T11:00:36.708Z,9.00
2023-02-09T11:03:26.321Z,8.80
2023-02-09T11:06:17.497Z,9.68
2023-02-09T11:09:08.525Z,9.50
2023-02-09T11:11:55.549Z,9.60
2023-02-09T11:14:44.135Z,9.13
2023-02-09T11:17:37.347Z,9.52
2023-02-09T11:20:32.010Z,9.30
2023-02-09T11:23:34.498Z,10.32
2023-02-09T11:26:33.982Z,9.73
2023-02-09T11:29:27.754Z,9.73
2023-02-09T11:32:21.715Z,10.40
2023-02-09T11:35:12.754Z,11.27
2023-02-09T11:38:02.825Z,10.20
2023-02-09T11:40:54.357Z,10.38
2023-02-09T11:43:42.365Z,11.15
2023-02-09T11:46:32.669Z,10.82
2023-02-09T11:49:22.433Z,10.95
2023-02-09T11:52:12.808Z,11.25
2023-02-09T11:57:52.093Z,11.45
2023-02-09T12:00:54.832Z,11.63
2023-02-09T12:03:57.836Z,12.00
2023-02-09T12:06:49.394Z,12.05
2023-02-09T12:09:49.229Z,13.05
2023-02-09T12:12:44.635Z,13.43
2023-02-09T12:15:38.892Z,12.07
2023-02-09T12:18:28.455Z,11.60
2023-02-09T12:21:28.378Z,12.48
2023-02-09T12:24:33.843Z,12.37
2023-02-09T12:27:27.582Z,12.05
2023-02-09T12:30:48.193Z,11.77
2023-02-09T12:33:37.183Z,12.50
2023-02-09T12:36:30.666Z,12.57
2023-02-09T12:39:25.758Z,12.63
2023-02-09T12:42:42.358Z,13.68
2023-02-09T12:45:36.168Z,12.50
2023-02-09T12:48:22.995Z,13.65
2023-02-09T12:51:46.800Z,14.68
2023-02-09T12:54:39.727Z,13.57
2023-02-09T12:57:55.129Z,14.07
2023-02-09T13:00:44.033Z,14.10
2023-02-09T13:03:31.459Z,14.57
2023-02-09T13:06:29.441Z,13.38
2023-02-09T13:09:22.340Z,15.00
2023-02-09T13:12:14.617Z,14.27
2023-02-09T13:15:07.549Z,14.10
2023-02-09T13:18:06.793Z,15.10
2023-02-09T13:21:19.753Z,13.82
2023-02-09T13:24:11.356Z,14.57
2023-02-09T13:26:59.725Z,13.13
2023-02-09T13:29:50.236Z,14.38
2023-02-09T13:35:37.453Z,13.82
2023-02-09T13:38:33.863Z,14.27
2023-02-09T13:41:31.151Z,14.23
2023-02-09T13:44:23.086Z,15.20
2023-02-09T13:47:15.510Z,14.32
2023-02-09T13:50:12.450Z,15.20
2023-02-09T13:53:10.190Z,13.98
2023-02-09T13:55:59.983Z,15.00
2023-02-09T13:58:48.314Z,14.17
2023-02-09T14:01:37.916Z,15.52
2023-02-09T14:04:29.151Z,15.48
2023-02-09T14:07:18.734Z,15.15
2023-02-09T14:10:12.691Z,15.85
2023-02-09T14:13:05.690Z,16.95
2023-02-09T14:16:09.350Z,16.02
2023-02-09T14:18:57.340Z,16.17
2023-02-09T14:21:47.242Z,15.30
2023-02-09T14:24:44.657Z,15.27
2023-02-09T14:27:34.886Z,15.45
2023-02-09T14:33:24.821Z,15.55
2023-02-09T14:36:23.085Z,16.05
2023-02-09T14:39:16.611Z,16.98
2023-02-09T14:42:20.972Z,16.73
2023-02-09T14:45:31.201Z,15.60
2023-02-09T14:48:19.568Z,16.30
2023-02-09T14:51:15.758Z,17.00
2023-02-09T14:54:03.086Z,18.25
2023-02-09T14:56:49.808Z,16.58
2023-02-09T14:59:38.076Z,18.20
2023-02-09T15:02:27.144Z,17.90
2023-02-09T15:05:14.064Z,17.95
2023-02-09T15:08:05.767Z,18.73
2023-02-09T15:10:56.423Z,18.30
2023-02-09T15:13:42.834Z,18.05
2023-02-09T15:16:31.817Z,17.98
2023-02-09T15:19:23.594Z,18.75
2023-02-09T15:22:13.465Z,18.80
2023-02-09T15:25:00.424Z,17.17
2023-02-09T15:27:51.835Z,17.92
2023-02-09T15:30:39.070Z,18.02
2023-02-09T15:33:29.215Z,17.67
2023-02-09T15:36:20.760Z,17.90
2023-02-09T15:39:16.888Z,19.65
2023-02-09T15:42:21.142Z,17.63
2023-02-09T15:45:33.746Z,19.33
2023-02-09T15:48:20.259Z,18.00
2023-02-09T15:51:08.805Z,18.55
2023-02-09T15:53:57.290Z,17.73
2023-02-09T15:56:43.870Z,18.13
2023-02-09T15:59:30.789Z,19.77
2023-02-09T16:02:19.392Z,19.60
2023-02-09T16:05:06.854Z,18.00
2023-02-09T16:07:56.091Z,19.70
2023-02-09T16:10:42.407Z,18.55
2023-02-09T16:13:29.065Z,19.73
2023-02-09T16:16:17.999Z,19.48
2023-02-09T16:19:05.042Z,19.67
2023-02-09T16:21:56.288Z,19.85
2023-02-09T16:24:46.744Z,19.95
2023-02-09T16:27:33.583Z,19.13
2023-02-09T16:30:23.560Z,20.42
2023-02-09T16:33:10.094Z,21.60
2023-02-09T16:35:58.858Z,20.73
2023-02-09T16:38:46.042Z,21.27
2023-02-09T16:41:50.504Z,21.75
2023-02-09T16:44:37.861Z,19.98
2023-02-09T16:47:27.897Z,21.67
2023-02-09T16:53:18.734Z,21.33
2023-02-09T16:56:10.223Z,21.83
2023-02-09T16:58:58.157Z,22.73
2023-02-09T17:01:46.466Z,21.45
2023-02-09T17:04:34.595Z,20.90
2023-02-09T17:07:21.904Z,21.90
2023-02-09T17:10:16.417Z,22.00
2023-02-09T17:13:04.739Z,21.90
2023-02-09T17:15:55.026Z,21.92
2023-02-09T17:18:43.837Z,22.92
2023-02-09T17:21:32.317Z,23.27
2023-02-09T17:24:22.762Z,22.20
2023-02-09T17:27:10.919Z,22.60
2023-02-09T17:29:57.666Z,23.92
2023-02-09T17:32:48.284Z,22.65
2023-02-09T17:36:10.205Z,22.83
2023-02-09T17:38:46.668Z,22.15
2023-02-09T17:41:38.311Z,23.80
2023-02-09T17:44:43.662Z,26.08
2023-02-09T17:47:32.064Z,23.33
2023-02-09T17:50:20.996Z,24.48
2023-02-09T17:53:15.092Z,25.63
2023-02-09T17:56:02.968Z,25.30
2023-02-09T17:58:49.907Z,23.67
2023-02-09T18:01:41.205Z,35.92
2023-02-09T18:04:28.678Z,26.25
2023-02-09T18:07:20.351Z,26.25
2023-02-09T18:10:08.446Z,26.65
2023-02-09T18:12:57.246Z,28.70
2023-02-09T18:15:44.194Z,28.20
2023-02-09T18:18:31.070Z,29.23
2023-02-09T18:21:18.130Z,28.48
2023-02-09T18:24:06.671Z,27.42
2023-02-09T18:26:53.700Z,27.67
2023-02-09T18:29:40.285Z,28.58
2023-02-09T18:32:26.661Z,27.88
2023-02-09T18:35:18.659Z,29.08
2023-02-09T18:38:07.898Z,30.40
2023-02-09T18:40:55.868Z,28.02
2023-02-09T18:43:42.864Z,29.42
2023-02-09T18:46:29.627Z,30.10
2023-02-09T18:49:16.430Z,30.35
2023-02-09T18:52:04.604Z,29.30
2023-02-09T18:54:51.378Z,28.50
2023-02-09T18:57:39.474Z,29.02
2023-02-09T19:00:27.196Z,28.15
2023-02-09T19:03:17.547Z,29.15
2023-02-09T19:06:04.495Z,29.88
2023-02-09T19:08:51.528Z,30.40
2023-02-09T19:11:38.623Z,32.70
2023-02-09T19:14:38.900Z,34.55
2023-02-09T19:17:26.251Z,30.67
2023-02-09T19:20:16.800Z,32.15
2023-02-09T19:23:03.891Z,33.75
2023-02-09T19:25:50.985Z,33.97
2023-02-09T19:28:37.681Z,35.67
2023-02-09T19:31:25.847Z,33.35
2023-02-09T19:34:12.495Z,34.63
2023-02-09T19:36:59.467Z,35.30
2023-02-09T19:39:52.850Z,33.72
2023-02-09T19:42:39.637Z,32.53
2023-02-09T19:45:26.541Z,35.20
2023-02-09T19:48:14.506Z,36.28
2023-02-09T19:51:01.246Z,36.72
2023-02-09T19:53:47.825Z,35.83
2023-02-09T19:56:34.453Z,35.08
2023-02-09T19:59:21.189Z,35.95
2023-02-09T20:02:08.240Z,34.70
2023-02-09T20:04:56.294Z,52.20
2023-02-09T20:07:43.216Z,35.67
2023-02-09T20:10:29.676Z,35.22
2023-02-09T20:13:16.731Z,39.40
2023-02-09T20:16:08.426Z,38.35
2023-02-09T20:18:55.479Z,38.75
2023-02-09T20:21:43.748Z,40.60
2023-02-09T20:24:30.388Z,39.38
2023-02-09T20:27:18.607Z,35.88
2023-02-09T20:30:07.192Z,38.40
2023-02-09T20:32:53.706Z,36.35
2023-02-09T20:35:41.333Z,36.33
2023-02-09T20:38:29.380Z,35.35
2023-02-09T20:41:18.775Z,34.40
2023-02-09T20:44:23.085Z,33.40
2023-02-09T20:47:09.532Z,34.55
2023-02-09T20:49:59.659Z,33.63
2023-02-09T20:52:46.618Z,33.90
2023-02-09T20:55:35.168Z,34.28
2023-02-09T20:58:21.652Z,34.17
2023-02-09T21:01:08.288Z,34.13
2023-02-09T21:03:56.672Z,35.30
2023-02-09T21:06:44.102Z,35.40
2023-02-09T21:09:30.434Z,35.70
2023-02-09T21:12:18.610Z,34.90
2023-02-09T21:15:05.389Z,34.95
2023-02-09T21:17:52.146Z,34.60
2023-02-09T21:20:39.342Z,37.83
2023-02-09T21:23:25.975Z,37.17
2023-02-09T21:26:14.905Z,35.78
2023-02-09T21:29:02.559Z,36.92
2023-02-09T21:31:50.846Z,36.83
2023-02-09T21:34:37.425Z,36.90
2023-02-09T21:37:24.101Z,36.22
2023-02-09T21:40:13.504Z,35.95
2023-02-09T21:43:00.303Z,35.10
2023-02-09T21:45:48.931Z,36.22
2023-02-09T21:48:35.646Z,37.03
2023-02-09T21:51:23.757Z,33.25
2023-02-09T21:54:13.662Z,32.80
2023-02-09T21:57:00.699Z,33.13
2023-02-09T21:59:47.264Z,33.08
2023-02-09T22:02:35.476Z,32.65
2023-02-09T22:05:22.539Z,33.03
2023-02-09T22:08:09.112Z,32.88
2023-02-09T22:10:56.251Z,34.97
2023-02-09T22:13:42.935Z,33.53
2023-02-09T22:16:30.052Z,33.97
2023-02-09T22:19:17.879Z,35.28
2023-02-09T22:22:05.045Z,33.53
2023-02-09T22:24:51.656Z,33.30
2023-02-09T22:27:38.234Z,34.17
2023-02-09T22:30:24.948Z,35.97
2023-02-09T22:33:11.680Z,34.88
2023-02-09T22:35:59.787Z,35.28
2023-02-09T22:38:46.622Z,33.15
2023-02-09T22:41:33.738Z,33.17
2023-02-09T22:44:20.086Z,33.22
2023-02-09T22:47:06.529Z,31.73
2023-02-09T22:49:53.092Z,33.60
2023-02-09T22:52:41.083Z,30.88
2023-02-09T22:55:27.579Z,30.75
2023-02-09T22:58:14.258Z,30.30
2023-02-09T23:04:39.182Z,28.38
2023-02-09T23:07:26.148Z,27.48
2023-02-09T23:10:14.278Z,29.45
2023-02-09T23:13:00.531Z,28.58
2023-02-09T23:15:47.737Z,29.25
2023-02-09T23:18:34.199Z,28.55
2023-02-09T23:21:22.568Z,27.75
2023-02-09T23:24:11.152Z,29.77
2023-02-09T23:26:59.215Z,29.27
2023-02-09T23:29:45.876Z,29.45
2023-02-09T23:32:32.737Z,27.92
2023-02-09T23:35:20.950Z,28.27
2023-02-09T23:38:07.434Z,27.30
2023-02-09T23:40:54.010Z,27.45
2023-02-09T23:43:42.641Z,28.08
2023-02-09T23:46:30.181Z,26.98
2023-02-09T23:49:16.545Z,27.90
2023-02-09T23:52:03.383Z,27.25
2023-02-09T23:54:49.981Z,29.10
2023-02-09T23:57:36.622Z,28.95
